Henrietta, North Carolina
Current Conditions -  °F | °C
As of 10:35 AM on Saturday 20 Dec 2014 (Local Time) from KEHO Reporting Station
Overcast Overcast  
Wind Chill: 37°   Ceiling: 3200
Heat Index: 40°   Visibility: 10mi
Dew Point: 35°   Wind: 5mph
Humidity: 82%   Direction: 40°NE
Pressure: 30.26"   Gusts: NA
Location:  35.26°N, 81.8°W
Report Text: KEHO 201535Z AUTO 04004KT 10SM OVC032 05/02 A3026 RMK AO2 T00450017
Loading
Personal Weather Stations






























Interactive Weather Map New forecast layout! Learn more

10-Day Weather Forecast

Advertisements
Track Severe Weather on mobile